Time;durP1;ratioP1;P1;durP2;ratioP2;P2;SDS_P1;SDS_P2;PMS_P1;PMS_P2;Temp;Humidity;BMP_temperature;BMP_pressure;BME280_temperature;BME280_humidity;BME280_pressure;Samples;Min_cycle;Max_cycle;Signal;HPM_P1;HPM_P2
2022/01/22 10:23:39;;;;;;;13.73;7.23;;;8.60;99.90;;;;;;4970620;23;20266;-74
2022/01/22 10:26:07;;;;;;;12.33;5.80;;;8.60;99.90;;;;;;4954607;28;20267;-75
2022/01/22 10:28:42;;;;;;;10.97;5.50;;;8.70;99.90;;;;;;4954862;28;20208;-75
2022/01/22 10:31:18;;;;;;;11.03;5.53;;;8.80;99.90;;;;;;4953322;28;20740;-77
2022/01/22 10:34:13;;;;;;;13.37;5.67;;;8.70;99.90;;;;;;4949576;29;20208;-76
2022/01/22 10:36:40;;;;;;;14.77;6.50;;;8.60;99.90;;;;;;4953712;28;20586;-74
2022/01/22 10:39:22;;;;;;;13.90;6.23;;;8.50;99.90;;;;;;4952940;28;20212;-80
2022/01/22 10:41:55;;;;;;;13.27;6.47;;;8.50;99.90;;;;;;4945923;28;20205;-77
2022/01/22 10:44:40;;;;;;;10.63;5.80;;;8.60;99.90;;;;;;4952444;29;20318;-75
2022/01/22 10:47:18;;;;;;;10.90;5.67;;;8.70;99.90;;;;;;4952027;28;20243;-74
2022/01/22 10:49:45;;;;;;;10.47;6.13;;;8.70;99.90;;;;;;4949303;28;20225;-73
2022/01/22 10:52:12;;;;;;;11.47;6.03;;;8.60;99.90;;;;;;4935460;29;20209;-75
2022/01/22 10:54:40;;;;;;;10.90;5.53;;;8.60;99.90;;;;;;4953148;28;20216;-76
2022/01/22 10:57:12;;;;;;;10.77;5.87;;;8.60;99.90;;;;;;4952766;28;20630;-77
2022/01/22 10:59:46;;;;;;;12.07;5.87;;;8.50;99.90;;;;;;4953899;28;20231;-74
2022/01/22 11:02:14;;;;;;;13.80;6.37;;;8.50;99.90;;;;;;4944842;28;20217;-76
2022/01/22 11:04:43;;;;;;;15.13;6.60;;;8.60;99.90;;;;;;4959342;28;20326;-76
2022/01/22 11:07:15;;;;;;;13.50;6.10;;;8.50;99.90;;;;;;4957649;28;20222;-74
2022/01/22 11:09:44;;;;;;;15.43;6.40;;;8.70;99.90;;;;;;4958304;28;20224;-75
2022/01/22 11:12:11;;;;;;;16.43;7.13;;;8.70;99.90;;;;;;4950525;28;20213;-73
2022/01/22 11:14:39;;;;;;;13.23;6.37;;;8.70;99.90;;;;;;4958623;28;20206;-76
2022/01/22 11:17:07;;;;;;;12.33;6.67;;;8.60;99.90;;;;;;4956411;28;20659;-84
2022/01/22 11:19:36;;;;;;;14.73;6.20;;;8.70;99.90;;;;;;4956525;28;20238;-76
2022/01/22 11:22:05;;;;;;;16.00;6.27;;;8.70;99.90;;;;;;4948054;28;20220;-77
2022/01/22 11:24:35;;;;;;;16.70;5.43;;;8.70;99.90;;;;;;4955914;28;20323;-75
2022/01/22 11:27:06;;;;;;;13.00;6.63;;;8.90;99.90;;;;;;4946668;28;20588;-75
2022/01/22 11:29:37;;;;;;;14.73;6.20;;;8.70;99.90;;;;;;4944763;29;20235;-72
2022/01/22 11:32:09;;;;;;;16.03;6.77;;;8.50;99.90;;;;;;4947242;28;20216;-81
2022/01/22 11:34:38;;;;;;;10.33;5.77;;;8.40;99.90;;;;;;4956324;28;20212;-74
2022/01/22 11:37:13;;;;;;;15.00;6.57;;;8.30;99.90;;;;;;4955453;28;20219;-73
2022/01/22 11:39:40;;;;;;;11.10;5.60;;;8.30;99.90;;;;;;4954767;28;20228;-73
2022/01/22 11:42:09;;;;;;;14.27;6.03;;;8.40;99.90;;;;;;4947289;28;20215;-75
2022/01/22 11:44:47;;;;;;;11.50;6.00;;;8.30;99.90;;;;;;4955746;28;20420;-75
2022/01/22 11:47:17;;;;;;;12.17;6.57;;;8.20;99.90;;;;;;4955152;28;20207;-73
2022/01/22 11:50:07;;;;;;;13.90;6.23;;;8.20;99.90;;;;;;4956937;28;20267;-76
2022/01/22 11:52:36;;;;;;;14.00;5.60;;;8.20;99.90;;;;;;4947343;28;20204;-75
2022/01/22 11:55:10;;;;;;;14.73;5.90;;;8.10;99.90;;;;;;4955095;28;20279;-78
2022/01/22 11:57:39;;;;;;;11.43;5.33;;;8.10;99.90;;;;;;4953752;29;20211;-78
2022/01/22 12:00:24;;;;;;;16.13;6.93;;;8.10;99.90;;;;;;4955532;28;20314;-73
2022/01/22 12:03:20;;;;;;;15.30;7.07;;;8.10;99.90;;;;;;4946161;28;20217;-75
2022/01/22 12:06:06;;;;;;;13.37;6.00;;;8.10;99.90;;;;;;4955326;28;20231;-73
2022/01/22 12:09:03;;;;;;;14.67;6.57;;;8.20;99.90;;;;;;4955331;28;20208;-74
2022/01/22 12:14:58;;;;;;;13.10;7.30;;;8.20;99.90;;;;;;4955209;29;20219;-77
2022/01/22 12:17:59;;;;;;;16.67;6.97;;;8.20;99.90;;;;;;4954623;28;20215;-76
2022/01/22 12:23:56;;;;;;;15.50;7.57;;;8.20;99.90;;;;;;4942465;29;20227;-75
2022/01/22 12:26:44;;;;;;;19.60;7.37;;;8.20;99.90;;;;;;4936161;29;20284;-74
2022/01/22 12:29:36;;;;;;;15.00;7.27;;;8.20;99.90;;;;;;4937285;29;20212;-73
2022/01/22 12:32:09;;;;;;;14.43;6.83;;;8.10;99.90;;;;;;4937669;29;20575;-73
2022/01/22 12:34:59;;;;;;;16.27;6.60;;;7.90;99.90;;;;;;4945599;29;20559;-76
2022/01/22 12:37:28;;;;;;;14.97;6.50;;;8.10;99.90;;;;;;4956059;28;20219;-74
2022/01/22 12:39:56;;;;;;;15.03;6.93;;;8.00;99.90;;;;;;4955996;28;20262;-75
2022/01/22 12:42:31;;;;;;;11.40;6.53;;;8.10;99.90;;;;;;4956500;28;20207;-73
2022/01/22 12:45:00;;;;;;;13.90;6.83;;;8.10;99.90;;;;;;4956109;28;20263;-74
2022/01/22 12:47:29;;;;;;;14.43;6.87;;;8.20;99.90;;;;;;4956269;28;20295;-75
2022/01/22 12:50:00;;;;;;;16.77;7.03;;;8.40;99.90;;;;;;4955030;28;20220;-75
2022/01/22 12:52:28;;;;;;;15.43;6.50;;;8.20;99.90;;;;;;4956111;28;20212;-76
2022/01/22 12:54:58;;;;;;;14.03;6.53;;;8.30;99.90;;;;;;4956258;28;20583;-73
2022/01/22 12:57:29;;;;;;;13.87;6.30;;;8.30;99.90;;;;;;4955975;28;20204;-74
2022/01/22 13:00:05;;;;;;;11.33;6.67;;;8.20;99.90;;;;;;4955973;28;20675;-73
2022/01/22 13:02:41;;;;;;;15.97;7.77;;;8.20;99.90;;;;;;4955863;28;20679;-73
2022/01/22 13:05:10;;;;;;;17.20;7.67;;;8.00;99.90;;;;;;4955675;28;20227;-74
2022/01/22 13:07:41;;;;;;;15.03;7.23;;;8.10;99.90;;;;;;4955506;28;20204;-74
2022/01/22 13:10:09;;;;;;;14.67;7.10;;;8.20;99.90;;;;;;4955224;28;20319;-77
2022/01/22 13:12:37;;;;;;;14.57;7.37;;;8.20;99.90;;;;;;4951811;28;20216;-77
2022/01/22 13:15:05;;;;;;;15.13;6.90;;;8.10;99.90;;;;;;4954430;28;20259;-74
2022/01/22 13:17:34;;;;;;;14.60;6.80;;;7.90;99.90;;;;;;4950353;28;20211;-73
2022/01/22 13:20:02;;;;;;;16.67;7.20;;;7.70;99.90;;;;;;4951897;29;20232;-76
2022/01/22 13:22:33;;;;;;;16.50;7.47;;;7.90;99.90;;;;;;4954239;28;20226;-76
2022/01/22 13:25:09;;;;;;;16.77;7.93;;;8.10;99.90;;;;;;4951880;28;20232;-73
2022/01/22 13:27:36;;;;;;;19.23;8.40;;;8.00;99.90;;;;;;4950666;28;20201;-73
2022/01/22 13:30:04;;;;;;;16.10;7.77;;;8.00;99.90;;;;;;4934774;29;20233;-73
2022/01/22 13:32:54;;;;;;;14.83;6.97;;;8.00;99.90;;;;;;4945386;29;20671;-74
2022/01/22 13:35:32;;;;;;;14.20;6.97;;;8.00;99.90;;;;;;4953479;28;20271;-79
2022/01/22 13:49:23;;;;;;;14.40;7.33;;;7.80;99.90;;;;;;4952794;29;20278;-76
2022/01/22 13:51:52;;;;;;;15.80;7.47;;;7.80;99.90;;;;;;4953083;28;20559;-78
2022/01/22 13:54:19;;;;;;;22.73;7.50;;;7.80;99.90;;;;;;4953599;28;20571;-77
2022/01/22 13:56:51;;;;;;;18.17;7.40;;;8.00;99.90;;;;;;4953301;28;20238;-76
2022/01/22 13:59:20;;;;;;;15.43;7.67;;;8.10;99.90;;;;;;4953999;28;20208;-75
2022/01/22 14:02:03;;;;;;;17.70;7.67;;;8.20;99.90;;;;;;4953427;28;20690;-75
2022/01/22 14:04:48;;;;;;;15.60;7.53;;;8.30;99.90;;;;;;4952907;28;20203;-74
2022/01/22 14:07:25;;;;;;;13.47;6.97;;;8.10;99.90;;;;;;4952442;28;20247;-76
2022/01/22 14:09:57;;;;;;;15.77;7.33;;;8.00;99.90;;;;;;4938662;29;20314;-75
2022/01/22 14:12:26;;;;;;;14.67;7.23;;;7.90;99.90;;;;;;4950204;28;20664;-73
2022/01/22 14:15:03;;;;;;;14.63;7.30;;;7.90;99.90;;;;;;4934413;29;20209;-72
2022/01/22 14:17:37;;;;;;;15.07;7.30;;;7.90;99.90;;;;;;4934080;29;20313;-72
2022/01/22 14:20:07;;;;;;;14.40;7.77;;;7.90;99.90;;;;;;4933617;29;20229;-74
2022/01/22 14:22:56;;;;;;;21.97;8.97;;;7.90;99.90;;;;;;4945448;29;20253;-74
2022/01/22 14:25:24;;;;;;;17.23;7.77;;;8.10;99.90;;;;;;4952779;28;20232;-76
2022/01/22 14:27:59;;;;;;;18.83;8.47;;;8.10;99.90;;;;;;4948605;28;20731;-75
2022/01/22 14:30:43;;;;;;;14.57;7.47;;;8.10;99.90;;;;;;4934386;29;20228;-72
2022/01/22 14:33:11;;;;;;;18.47;7.77;;;8.10;99.90;;;;;;4949671;29;20215;-76
2022/01/22 14:35:39;;;;;;;16.27;7.67;;;7.90;99.90;;;;;;4953502;28;20212;-72
2022/01/22 14:38:36;;;;;;;16.13;8.40;;;8.00;99.90;;;;;;4946494;28;20231;-73
2022/01/22 14:44:11;;;;;;;16.57;8.50;;;8.00;99.90;;;;;;4937638;29;20628;-72
2022/01/22 14:46:58;;;;;;;21.03;8.17;;;8.00;99.90;;;;;;4937465;29;20631;-74
2022/01/22 14:49:27;;;;;;;15.33;7.87;;;7.90;99.90;;;;;;4936847;29;20247;-73
2022/01/22 14:51:55;;;;;;;14.23;6.83;;;7.80;99.90;;;;;;4943558;29;20238;-74
2022/01/22 14:54:24;;;;;;;16.57;8.20;;;7.80;99.90;;;;;;4956892;28;20208;-74
2022/01/22 14:56:52;;;;;;;16.13;8.00;;;7.90;99.90;;;;;;4956454;28;20592;-73
2022/01/22 14:59:19;;;;;;;14.43;7.57;;;8.00;99.90;;;;;;4939661;28;20220;-73
2022/01/22 15:01:46;;;;;;;13.97;7.13;;;8.00;99.90;;;;;;4942163;29;20683;-78
2022/01/22 15:04:13;;;;;;;17.77;8.13;;;7.90;99.90;;;;;;4955775;28;20204;-75
2022/01/22 15:06:40;;;;;;;15.83;6.70;;;7.80;99.90;;;;;;4955935;28;20251;-74
2022/01/22 15:09:07;;;;;;;12.33;6.50;;;7.70;99.90;;;;;;4949764;28;20264;-75
2022/01/22 15:11:37;;;;;;;12.43;6.33;;;7.60;99.90;;;;;;4939915;29;20292;-76
2022/01/22 15:14:05;;;;;;;12.17;6.73;;;7.50;99.90;;;;;;4956197;28;20207;-75
2022/01/22 15:16:38;;;;;;;15.77;6.50;;;7.60;99.90;;;;;;4957851;28;20210;-75
2022/01/22 15:19:12;;;;;;;14.67;7.23;;;7.60;99.90;;;;;;4958053;28;20231;-75
2022/01/22 15:21:40;;;;;;;13.43;6.73;;;7.60;99.90;;;;;;4957980;28;20290;-77
2022/01/22 15:24:08;;;;;;;13.13;6.30;;;7.60;99.90;;;;;;4957729;28;20231;-75
2022/01/22 15:26:36;;;;;;;11.97;6.03;;;7.60;99.90;;;;;;4958286;28;20235;-75
2022/01/22 15:29:06;;;;;;;13.40;6.83;;;7.70;99.90;;;;;;4958173;28;20219;-76
2022/01/22 15:31:35;;;;;;;15.23;6.57;;;7.80;99.90;;;;;;4958420;28;20211;-77
2022/01/22 15:34:10;;;;;;;12.67;6.93;;;7.80;99.90;;;;;;4960232;28;20212;-75
2022/01/22 15:36:38;;;;;;;13.63;6.67;;;7.60;99.90;;;;;;4959530;28;20211;-76
2022/01/22 15:39:07;;;;;;;14.23;7.30;;;7.60;99.90;;;;;;4959389;28;20212;-75
2022/01/22 15:41:37;;;;;;;14.73;6.40;;;7.60;99.90;;;;;;4958094;28;20208;-74
2022/01/22 15:44:08;;;;;;;18.60;6.83;;;7.60;99.90;;;;;;4957519;28;20208;-74
2022/01/22 15:46:41;;;;;;;16.97;6.80;;;7.60;99.90;;;;;;4957237;28;20235;-76
2022/01/22 15:49:13;;;;;;;13.10;6.73;;;7.60;99.90;;;;;;4957033;28;20235;-75
2022/01/22 15:51:42;;;;;;;16.40;6.97;;;7.60;99.90;;;;;;4955888;28;20299;-75
2022/01/22 15:54:09;;;;;;;12.07;6.60;;;7.60;99.90;;;;;;4957463;28;20356;-74
2022/01/22 15:56:37;;;;;;;13.07;6.60;;;7.60;99.90;;;;;;4957260;28;20204;-74
2022/01/22 15:59:05;;;;;;;12.07;6.30;;;7.70;99.90;;;;;;4956851;28;20271;-78
2022/01/22 16:01:32;;;;;;;14.57;6.90;;;7.70;99.90;;;;;;4956971;28;20267;-76
2022/01/22 16:04:00;;;;;;;15.30;6.70;;;7.70;99.90;;;;;;4956190;28;20663;-75
2022/01/22 16:06:36;;;;;;;13.57;6.70;;;7.70;99.90;;;;;;4957156;28;20232;-74
2022/01/22 16:09:08;;;;;;;15.63;6.93;;;7.60;99.90;;;;;;4957070;28;20204;-76
2022/01/22 16:11:34;;;;;;;13.10;6.87;;;7.60;99.90;;;;;;4957211;28;20212;-78
2022/01/22 16:14:03;;;;;;;17.13;7.17;;;7.50;99.90;;;;;;4957089;28;20208;-76
2022/01/22 16:16:30;;;;;;;12.63;6.23;;;7.60;99.90;;;;;;4956833;28;20212;-75
2022/01/22 16:18:56;;;;;;;12.57;6.37;;;7.70;99.90;;;;;;4956840;28;20659;-75
2022/01/22 16:21:23;;;;;;;15.30;6.93;;;7.70;99.90;;;;;;4956338;28;20251;-74
